Time;durP1;ratioP1;P1;durP2;ratioP2;P2;SDS_P1;SDS_P2;PMS_P1;PMS_P2;Temp;Humidity;BMP_temperature;BMP_pressure;BME280_temperature;BME280_humidity;BME280_pressure;Samples;Min_cycle;Max_cycle;Signal;HPM_P1;HPM_P2
2021/07/26 00:02:21;;;;;;;5.23;4.83;;;;;;;18.61;100.00;99804.69;5017083;28;20173;-72
2021/07/26 00:04:47;;;;;;;5.43;4.93;;;;;;;18.71;100.00;99807.59;5017167;28;20173;-72
2021/07/26 00:07:12;;;;;;;5.10;4.70;;;;;;;18.68;100.00;99802.03;5017177;28;20260;-72
2021/07/26 00:09:38;;;;;;;5.63;5.13;;;;;;;18.21;100.00;99803.50;5017212;28;20172;-72
2021/07/26 00:12:06;;;;;;;5.20;4.73;;;;;;;18.38;100.00;99802.91;5016606;28;20224;-72
2021/07/26 00:14:32;;;;;;;6.10;5.60;;;;;;;18.31;100.00;99791.75;5017079;28;20191;-72
2021/07/26 00:16:58;;;;;;;5.73;5.33;;;;;;;18.33;100.00;99803.25;5017498;28;20176;-72
2021/07/26 00:19:23;;;;;;;5.23;4.73;;;;;;;18.24;100.00;99808.31;5016959;28;20172;-72
2021/07/26 00:21:49;;;;;;;6.13;5.53;;;;;;;18.20;100.00;99812.97;5032242;28;20187;-72
2021/07/26 00:24:16;;;;;;;5.97;5.47;;;;;;;17.91;100.00;99813.81;5017428;28;20172;-72
2021/07/26 00:26:41;;;;;;;5.67;5.27;;;;;;;18.22;100.00;99821.69;5016984;28;20526;-72
2021/07/26 00:29:07;;;;;;;6.23;5.27;;;;;;;18.22;100.00;99824.44;5016965;28;20216;-72
2021/07/26 00:31:32;;;;;;;5.23;4.63;;;;;;;18.31;100.00;99829.69;5016801;28;20177;-72
2021/07/26 00:34:19;;;;;;;5.70;5.30;;;;;;;18.39;100.00;99831.38;5017119;28;20569;-72
2021/07/26 00:36:46;;;;;;;4.60;4.20;;;;;;;18.46;100.00;99825.91;5014849;28;20247;-72
2021/07/26 00:39:14;;;;;;;5.07;4.67;;;;;;;18.52;100.00;99820.84;5013640;28;20184;-72
2021/07/26 00:41:40;;;;;;;4.87;4.47;;;;;;;18.51;100.00;99808.94;5013657;28;20263;-72
2021/07/26 00:44:05;;;;;;;5.07;4.67;;;;;;;18.47;100.00;99810.88;5013846;28;20588;-72
2021/07/26 00:46:31;;;;;;;5.00;4.50;;;;;;;18.47;100.00;99812.88;5014055;28;20179;-72
2021/07/26 00:48:58;;;;;;;4.97;4.57;;;;;;;18.47;100.00;99812.88;5013712;28;20173;-72
2021/07/26 00:51:23;;;;;;;5.47;5.03;;;;;;;18.44;100.00;99812.44;5013340;28;20647;-73
2021/07/26 00:53:49;;;;;;;4.07;3.77;;;;;;;18.54;100.00;99822.03;5013551;28;20168;-72
2021/07/26 00:56:15;;;;;;;5.40;4.90;;;;;;;18.41;100.00;99840.88;5013591;28;20210;-72
2021/07/26 00:58:41;;;;;;;4.83;4.43;;;;;;;18.20;100.00;99843.38;5013479;28;20169;-72
2021/07/26 01:01:07;;;;;;;4.97;4.57;;;;;;;18.30;100.00;99841.94;5013185;28;20270;-72
2021/07/26 01:03:33;;;;;;;4.60;4.30;;;;;;;18.31;100.00;99841.53;5013488;28;20632;-72
2021/07/26 01:05:58;;;;;;;4.77;4.33;;;;;;;18.35;100.00;99836.84;5013377;28;20214;-72
2021/07/26 01:08:24;;;;;;;5.20;4.70;;;;;;;18.42;100.00;99838.91;5027120;28;20616;-72
2021/07/26 01:10:49;;;;;;;5.00;4.50;;;;;;;18.50;100.00;99834.22;5007215;28;20185;-72
2021/07/26 01:13:15;;;;;;;5.00;4.60;;;;;;;18.61;100.00;99837.91;5012969;28;20270;-72
2021/07/26 01:15:40;;;;;;;5.27;4.43;;;;;;;18.66;100.00;99843.94;5013268;28;20195;-72
2021/07/26 01:18:23;;;;;;;4.97;4.57;;;;;;;18.69;100.00;99840.41;5013268;28;20183;-72
2021/07/26 01:21:17;;;;;;;4.43;4.03;;;;;;;18.67;100.00;99840.00;5013197;28;20202;-72
2021/07/26 01:23:44;;;;;;;4.70;4.00;;;;;;;18.75;100.00;99838.06;5013105;28;20183;-72
2021/07/26 01:26:13;;;;;;;4.30;3.90;;;;;;;18.79;100.00;99843.63;5013394;28;20179;-72
2021/07/26 01:28:44;;;;;;;4.90;4.50;;;;;;;18.79;100.00;99838.88;5013099;28;20177;-72
2021/07/26 01:31:10;;;;;;;4.30;3.90;;;;;;;18.81;100.00;99835.78;5013118;28;20165;-72
2021/07/26 01:33:36;;;;;;;5.03;4.63;;;;;;;18.82;100.00;99831.81;5013126;28;20640;-72
2021/07/26 01:36:02;;;;;;;4.80;4.40;;;;;;;18.80;100.00;99832.19;5013013;28;20184;-72
2021/07/26 01:38:29;;;;;;;4.83;4.43;;;;;;;18.87;100.00;99843.31;5013126;28;20172;-72
2021/07/26 01:40:55;;;;;;;5.33;4.90;;;;;;;18.91;100.00;99835.84;5012804;28;20247;-72
2021/07/26 01:43:25;;;;;;;4.20;3.80;;;;;;;18.76;100.00;99828.59;5013053;28;20540;-72
2021/07/26 01:46:02;;;;;;;4.70;4.37;;;;;;;18.60;100.00;99828.81;5013108;28;20231;-72
2021/07/26 01:48:38;;;;;;;4.10;3.77;;;;;;;18.69;100.00;99831.31;5012631;28;20176;-72
2021/07/26 01:51:36;;;;;;;4.90;4.50;;;;;;;18.80;100.00;99831.38;5016238;28;20168;-72
2021/07/26 01:54:01;;;;;;;4.60;4.20;;;;;;;18.77;100.00;99832.94;5018031;28;20377;-72
2021/07/26 01:56:27;;;;;;;5.03;4.63;;;;;;;18.81;100.00;99839.34;5014809;28;20185;-72
2021/07/26 01:58:52;;;;;;;4.83;4.43;;;;;;;18.77;100.00;99840.44;5012500;28;20176;-72
2021/07/26 02:01:17;;;;;;;4.60;4.30;;;;;;;18.83;100.00;99830.63;5012394;28;20208;-72
2021/07/26 02:03:43;;;;;;;4.20;3.90;;;;;;;18.83;100.00;99830.63;5012587;28;20177;-72
2021/07/26 02:06:08;;;;;;;3.67;3.37;;;;;;;18.67;100.00;99825.34;5012205;28;20319;-72
2021/07/26 02:08:33;;;;;;;3.80;3.50;;;;;;;18.45;100.00;99818.78;5011988;28;20180;-72
2021/07/26 02:10:59;;;;;;;4.40;4.00;;;;;;;18.35;100.00;99822.22;5012065;28;20177;-72
2021/07/26 02:13:24;;;;;;;3.83;3.53;;;;;;;18.28;100.00;99825.72;5012005;28;20561;-72
2021/07/26 02:15:49;;;;;;;3.80;3.50;;;;;;;18.33;100.00;99828.13;5011921;28;20551;-72
2021/07/26 02:18:15;;;;;;;3.60;3.30;;;;;;;18.38;100.00;99832.53;5012003;28;20212;-72
2021/07/26 02:20:40;;;;;;;3.20;2.73;;;;;;;18.54;100.00;99826.78;5011863;28;20588;-72
2021/07/26 02:23:05;;;;;;;2.37;2.17;;;;;;;18.74;100.00;99825.41;5011712;28;20260;-72
2021/07/26 02:25:31;;;;;;;2.77;2.57;;;;;;;18.89;98.46;99827.13;5011865;28;20250;-72
2021/07/26 02:27:57;;;;;;;3.27;2.97;;;;;;;19.06;96.07;99814.59;5011840;28;20188;-72
2021/07/26 02:30:22;;;;;;;2.70;2.03;;;;;;;19.09;95.52;99813.03;5011705;28;20177;-72
2021/07/26 02:32:48;;;;;;;1.77;1.60;;;;;;;19.15;94.35;99811.50;5011618;28;20734;-72
2021/07/26 02:35:13;;;;;;;2.07;1.97;;;;;;;19.17;93.90;99812.72;5011745;28;20172;-72
2021/07/26 02:37:38;;;;;;;1.93;1.83;;;;;;;19.16;93.95;99818.63;5011637;28;20191;-72
2021/07/26 02:40:04;;;;;;;3.50;3.20;;;;;;;19.13;94.33;99813.88;5011471;28;20291;-72
2021/07/26 02:42:30;;;;;;;4.40;3.07;;;;;;;19.10;94.23;99812.69;5011416;28;20392;-72
2021/07/26 02:44:55;;;;;;;3.17;2.97;;;;;;;19.09;95.08;99824.91;5011735;28;20532;-72
2021/07/26 02:47:20;;;;;;;3.00;2.70;;;;;;;18.92;98.37;99825.56;5011465;28;20211;-73
2021/07/26 02:49:46;;;;;;;4.23;3.83;;;;;;;18.68;100.00;99832.47;5011501;28;20185;-72
2021/07/26 02:52:11;;;;;;;4.10;3.80;;;;;;;18.55;100.00;99839.44;5011175;28;20566;-72
2021/07/26 02:54:37;;;;;;;3.77;3.47;;;;;;;18.41;100.00;99834.56;5011279;28;20176;-72
2021/07/26 02:57:02;;;;;;;4.40;4.00;;;;;;;18.61;100.00;99832.38;5011480;28;20176;-72
2021/07/26 02:59:27;;;;;;;3.80;3.50;;;;;;;18.70;100.00;99835.66;5010971;28;20192;-72
2021/07/26 03:01:53;;;;;;;4.30;3.90;;;;;;;18.69;100.00;99840.41;5010787;28;20176;-72
2021/07/26 03:04:18;;;;;;;4.00;3.63;;;;;;;18.58;100.00;99833.13;5011325;28;20230;-72
2021/07/26 03:06:44;;;;;;;3.60;3.30;;;;;;;18.33;100.00;99841.16;5011247;28;20194;-72
2021/07/26 03:09:10;;;;;;;6.37;3.90;;;;;;;18.13;100.00;99840.56;5011053;28;20263;-72
2021/07/26 03:11:38;;;;;;;3.83;3.20;;;;;;;17.92;100.00;99846.59;5010949;28;20180;-73
2021/07/26 03:14:04;;;;;;;3.93;3.63;;;;;;;17.82;100.00;99850.84;5011115;28;20295;-72
2021/07/26 03:16:29;;;;;;;4.40;3.63;;;;;;;17.81;100.00;99845.69;5011100;28;20271;-72
2021/07/26 03:18:55;;;;;;;4.37;3.97;;;;;;;17.86;100.00;99855.59;5011070;28;20176;-73
2021/07/26 03:21:20;;;;;;;3.93;3.60;;;;;;;17.84;100.00;99854.00;5011102;28;20564;-72
2021/07/26 03:23:46;;;;;;;6.30;3.53;;;;;;;17.79;100.00;99862.66;5011068;28;20180;-72
2021/07/26 03:26:12;;;;;;;4.03;3.70;;;;;;;17.96;100.00;99869.56;5010992;28;20200;-72
2021/07/26 03:28:37;;;;;;;3.13;2.90;;;;;;;18.07;100.00;99875.22;5026336;28;20624;-72
2021/07/26 03:31:02;;;;;;;5.00;3.10;;;;;;;18.12;100.00;99872.94;5010987;28;20204;-72
2021/07/26 03:33:28;;;;;;;4.47;4.17;;;;;;;18.18;100.00;99873.38;5010858;28;20173;-72
2021/07/26 03:35:54;;;;;;;3.80;3.50;;;;;;;18.26;100.00;99875.09;5010935;28;20709;-72
2021/07/26 03:38:23;;;;;;;4.67;3.33;;;;;;;18.32;100.00;99872.75;5010808;28;20172;-72
2021/07/26 03:40:49;;;;;;;3.20;3.00;;;;;;;18.31;100.00;99871.97;5010946;28;20208;-72
2021/07/26 03:43:15;;;;;;;4.47;2.67;;;;;;;18.26;100.00;99874.28;5010675;28;20223;-72
2021/07/26 03:45:41;;;;;;;2.77;2.57;;;;;;;18.13;100.00;99882.03;5010790;28;20180;-72
2021/07/26 03:48:06;;;;;;;2.87;2.67;;;;;;;18.05;100.00;99878.38;5010800;28;20172;-72
2021/07/26 03:50:32;;;;;;;3.13;2.83;;;;;;;17.96;100.00;99875.09;5010664;28;20187;-72
2021/07/26 03:52:58;;;;;;;3.00;2.80;;;;;;;17.93;100.00;99875.81;5010658;28;20172;-72
2021/07/26 03:55:28;;;;;;;3.37;2.87;;;;;;;17.98;100.00;99880.25;5010745;28;20177;-72
2021/07/26 03:57:54;;;;;;;3.30;3.00;;;;;;;18.03;100.00;99885.44;5010743;28;20180;-72
2021/07/26 04:00:22;;;;;;;4.00;3.70;;;;;;;18.08;100.00;99890.63;5010528;28;20628;-73
2021/07/26 04:05:51;;;;;;;4.00;3.23;;;;;;;18.10;100.00;99905.69;5010612;28;20660;-72
2021/07/26 04:08:23;;;;;;;2.90;2.63;;;;;;;18.21;100.00;99902.25;5010691;28;20169;-72
2021/07/26 04:10:54;;;;;;;2.47;2.27;;;;;;;18.30;100.00;99903.56;5010968;28;20620;-72
2021/07/26 04:13:20;;;;;;;2.80;2.60;;;;;;;18.37;100.00;99917.50;5014159;28;20176;-73
2021/07/26 04:15:46;;;;;;;3.30;2.37;;;;;;;18.36;100.00;99909.56;5014065;28;20188;-73
2021/07/26 04:18:12;;;;;;;2.90;2.70;;;;;;;18.31;100.00;99907.13;5014251;28;20169;-73
2021/07/26 04:20:38;;;;;;;2.60;2.40;;;;;;;18.28;100.00;99910.66;5014135;28;20219;-73
2021/07/26 04:23:04;;;;;;;2.40;2.20;;;;;;;18.27;100.00;99912.63;5014024;28;20180;-73
2021/07/26 04:25:29;;;;;;;2.77;2.57;;;;;;;18.27;100.00;99922.88;5014132;28;20307;-73
2021/07/26 04:27:54;;;;;;;2.50;2.30;;;;;;;18.26;100.00;99924.06;5014010;28;20179;-73
2021/07/26 04:30:19;;;;;;;4.07;3.67;;;;;;;18.26;100.00;99915.78;5013734;28;20234;-73
2021/07/26 04:32:47;;;;;;;2.83;2.63;;;;;;;18.27;100.00;99917.34;5013785;28;20226;-73
2021/07/26 04:35:14;;;;;;;4.10;3.20;;;;;;;18.23;100.00;99922.06;5014030;28;20180;-73
2021/07/26 04:37:40;;;;;;;2.87;2.67;;;;;;;18.20;100.00;99920.81;5013905;28;20673;-73
2021/07/26 04:40:08;;;;;;;2.83;2.63;;;;;;;18.15;100.00;99915.63;5013857;28;20192;-73
2021/07/26 04:42:33;;;;;;;3.63;3.33;;;;;;;18.11;100.00;99914.78;5013622;28;20176;-73
2021/07/26 04:44:58;;;;;;;2.80;2.60;;;;;;;18.08;100.00;99910.81;5013712;28;20179;-73
2021/07/26 04:47:24;;;;;;;3.27;3.03;;;;;;;18.09;100.00;99915.16;5013807;28;20650;-72
2021/07/26 04:49:49;;;;;;;3.30;3.00;;;;;;;18.14;100.00;99914.81;5012327;28;20569;-73
2021/07/26 04:52:15;;;;;;;3.53;2.73;;;;;;;18.17;100.00;99920.78;5013464;28;20246;-73
2021/07/26 04:54:40;;;;;;;2.80;2.60;;;;;;;18.21;100.00;99918.84;5013611;28;20259;-73
2021/07/26 04:57:05;;;;;;;3.17;2.93;;;;;;;18.22;100.00;99923.19;5013508;28;20169;-73
2021/07/26 04:59:31;;;;;;;3.17;2.87;;;;;;;18.24;100.00;99924.44;5013215;28;20184;-73
2021/07/26 05:01:56;;;;;;;3.20;3.00;;;;;;;18.24;100.00;99920.88;5013197;28;20180;-72
2021/07/26 05:04:21;;;;;;;3.17;2.90;;;;;;;18.26;100.00;99935.91;5028574;28;20718;-73
2021/07/26 05:06:47;;;;;;;3.07;2.77;;;;;;;18.29;100.00;99929.63;5013437;28;20208;-73
2021/07/26 05:09:13;;;;;;;3.30;3.00;;;;;;;18.31;100.00;99924.50;5013396;28;20578;-73
2021/07/26 05:11:40;;;;;;;3.17;2.87;;;;;;;18.40;100.00;99921.47;5013011;28;20189;-73
2021/07/26 05:14:07;;;;;;;3.33;3.03;;;;;;;18.48;100.00;99922.34;5013077;28;20177;-73
2021/07/26 05:16:33;;;;;;;3.60;3.30;;;;;;;18.54;100.00;99920.84;5013070;28;20224;-73
2021/07/26 05:18:58;;;;;;;5.40;3.43;;;;;;;18.61;100.00;99926.44;5012975;28;20208;-73
2021/07/26 05:21:24;;;;;;;3.00;2.70;;;;;;;18.59;100.00;99920.50;5012824;28;20208;-73
2021/07/26 05:23:50;;;;;;;3.43;3.13;;;;;;;18.68;100.00;99929.34;5012597;28;20180;-73
2021/07/26 05:26:15;;;;;;;3.43;3.13;;;;;;;18.73;100.00;99935.31;5012974;28;20261;-73
2021/07/26 05:28:41;;;;;;;4.63;3.20;;;;;;;18.80;100.00;99929.06;5012975;28;20177;-73
2021/07/26 05:31:06;;;;;;;5.13;3.30;;;;;;;18.83;100.00;99944.94;5012791;28;20180;-73
2021/07/26 05:33:31;;;;;;;3.40;3.20;;;;;;;18.81;100.00;99930.66;5012803;28;20544;-73
2021/07/26 05:35:57;;;;;;;2.80;2.60;;;;;;;18.72;100.00;99932.94;5013358;28;20173;-73
2021/07/26 05:38:22;;;;;;;3.13;2.93;;;;;;;18.65;100.00;99930.06;5027995;28;20189;-73
2021/07/26 05:40:48;;;;;;;6.87;2.97;;;;;;;18.66;100.00;99931.66;5012718;28;20211;-73
2021/07/26 05:43:14;;;;;;;4.47;3.33;;;;;;;18.68;100.00;99926.56;5012443;28;20172;-73
2021/07/26 05:45:39;;;;;;;4.90;3.07;;;;;;;18.69;100.00;99925.41;5012708;28;20176;-73
2021/07/26 05:48:05;;;;;;;3.37;3.07;;;;;;;18.68;100.00;99930.13;5012707;28;20655;-73
2021/07/26 05:50:31;;;;;;;3.10;2.90;;;;;;;18.61;100.00;99937.50;5012473;28;20633;-73
2021/07/26 05:52:56;;;;;;;3.20;2.97;;;;;;;18.60;100.00;99931.19;5012436;28;20172;-73
2021/07/26 05:55:21;;;;;;;3.67;3.37;;;;;;;18.64;100.00;99932.03;5012459;28;20185;-73
2021/07/26 05:57:47;;;;;;;3.27;2.97;;;;;;;18.71;100.00;99939.66;5012331;28;20817;-73
2021/07/26 06:00:17;;;;;;;3.60;3.30;;;;;;;18.85;100.00;99928.72;5012297;28;20673;-73
2021/07/26 06:02:43;;;;;;;3.23;2.93;;;;;;;18.92;100.00;99928.78;5012296;28;20181;-73
2021/07/26 06:05:08;;;;;;;3.77;3.47;;;;;;;18.94;100.00;99926.44;5012349;28;20234;-73
2021/07/26 06:07:34;;;;;;;3.20;3.00;;;;;;;19.05;100.00;99925.75;5012297;28;20251;-73
2021/07/26 06:09:59;;;;;;;3.40;3.10;;;;;;;19.12;100.00;99923.06;5012132;28;20647;-73
2021/07/26 06:12:26;;;;;;;3.93;3.33;;;;;;;19.18;100.00;99925.09;5012277;28;20176;-74
2021/07/26 06:14:52;;;;;;;2.80;2.60;;;;;;;19.25;100.00;99921.59;5012052;28;20189;-73
2021/07/26 06:17:17;;;;;;;3.10;2.83;;;;;;;19.32;100.00;99924.41;5012109;28;20181;-73
2021/07/26 06:19:43;;;;;;;3.63;2.70;;;;;;;19.40;100.00;99915.00;5003346;28;20706;-73
2021/07/26 06:22:08;;;;;;;2.80;2.60;;;;;;;19.53;100.00;99919.06;5002034;28;20188;-73
2021/07/26 06:24:33;;;;;;;2.80;2.60;;;;;;;19.63;100.00;99916.75;5002615;28;20222;-72
2021/07/26 06:26:59;;;;;;;2.67;2.47;;;;;;;19.78;100.00;99921.22;5004834;28;20191;-73
2021/07/26 06:29:25;;;;;;;2.83;2.63;;;;;;;19.93;100.00;99928.44;5011956;28;20731;-73
2021/07/26 06:31:51;;;;;;;2.60;2.40;;;;;;;20.04;100.00;99922.97;5011425;28;20214;-73
2021/07/26 06:34:17;;;;;;;3.70;3.40;;;;;;;20.15;100.00;99921.84;5010045;28;20187;-73
2021/07/26 06:36:42;;;;;;;3.00;2.80;;;;;;;20.30;100.00;99925.47;5011420;28;20184;-73
2021/07/26 06:39:09;;;;;;;3.63;3.33;;;;;;;20.41;100.00;99925.53;5011586;28;20176;-73
2021/07/26 06:41:35;;;;;;;4.93;2.97;;;;;;;20.48;100.00;99931.13;5011365;28;20207;-73
2021/07/26 06:44:00;;;;;;;3.23;2.93;;;;;;;20.49;100.00;99933.50;5011658;28;20695;-73
2021/07/26 06:46:26;;;;;;;3.17;2.97;;;;;;;20.60;100.00;99933.53;5011564;28;20243;-73
2021/07/26 06:48:51;;;;;;;2.80;2.60;;;;;;;20.62;100.00;99942.28;5011792;28;20181;-73
2021/07/26 06:51:17;;;;;;;3.30;3.00;;;;;;;20.65;100.00;99944.25;5011360;28;20553;-73
2021/07/26 06:53:43;;;;;;;3.50;3.17;;;;;;;20.74;100.00;99947.47;5011371;28;20272;-73
2021/07/26 06:56:09;;;;;;;3.27;2.97;;;;;;;20.79;100.00;99944.31;5011872;28;20267;-72
2021/07/26 06:58:36;;;;;;;4.03;3.63;;;;;;;20.84;100.00;99947.91;5011392;28;20177;-73
2021/07/26 07:01:12;;;;;;;4.97;4.30;;;;;;;20.92;100.00;99943.94;5008160;28;20766;-72
2021/07/26 07:03:45;;;;;;;4.20;3.90;;;;;;;21.01;100.00;99941.59;5011285;28;20187;-72
2021/07/26 07:06:15;;;;;;;4.20;3.80;;;;;;;21.13;100.00;99938.44;5011201;28;20188;-72
2021/07/26 07:08:41;;;;;;;3.97;3.67;;;;;;;21.26;100.00;99934.06;5011316;28;20625;-73
2021/07/26 07:11:08;;;;;;;3.70;3.40;;;;;;;21.41;100.00;99943.25;5011270;28;20184;-73
2021/07/26 07:13:35;;;;;;;3.23;3.03;;;;;;;21.48;100.00;99939.66;5008249;28;20196;-73
2021/07/26 07:16:01;;;;;;;2.97;2.77;;;;;;;21.51;94.96;99936.06;4999130;28;20190;-73
2021/07/26 07:18:27;;;;;;;3.47;3.17;;;;;;;21.59;94.84;99929.34;5000974;28;20174;-73
2021/07/26 07:20:53;;;;;;;4.37;3.33;;;;;;;21.72;95.12;99933.28;5002975;28;20211;-73
2021/07/26 07:23:19;;;;;;;2.70;2.50;;;;;;;21.82;93.73;99932.47;5001377;28;20173;-72
2021/07/26 07:25:44;;;;;;;3.17;2.50;;;;;;;21.84;88.11;99934.84;4999215;28;20287;-73
2021/07/26 07:28:09;;;;;;;2.03;1.93;;;;;;;21.90;89.38;99941.59;4991413;28;20268;-73
2021/07/26 07:30:35;;;;;;;1.87;1.77;;;;;;;21.99;76.98;99933.66;4991184;28;20178;-73
2021/07/26 07:33:00;;;;;;;1.40;1.30;;;;;;;22.12;78.77;99939.56;4991520;28;20192;-73
2021/07/26 07:35:26;;;;;;;1.53;1.40;;;;;;;22.11;82.50;99927.66;4991140;28;20188;-72
2021/07/26 07:37:52;;;;;;;2.07;1.90;;;;;;;22.14;78.63;99926.09;4990859;28;20183;-72
2021/07/26 07:40:18;;;;;;;1.63;1.50;;;;;;;22.13;80.20;99916.13;5004597;28;20675;-73
2021/07/26 07:42:43;;;;;;;1.30;1.20;;;;;;;22.20;78.97;99914.13;5009443;28;20188;-73
2021/07/26 07:45:10;;;;;;;1.67;1.50;;;;;;;22.36;80.58;99929.56;5010772;28;20197;-73
2021/07/26 07:47:35;;;;;;;1.60;1.50;;;;;;;22.43;77.83;99930.34;5014034;28;20263;-73
2021/07/26 07:50:02;;;;;;;1.50;1.40;;;;;;;22.44;76.74;99925.56;5013657;28;20261;-74
2021/07/26 07:52:27;;;;;;;2.43;1.97;;;;;;;22.47;76.74;99922.75;5005249;28;20187;-75
2021/07/26 07:54:53;;;;;;;1.67;1.57;;;;;;;22.54;73.45;99925.50;5004917;28;20176;-75
2021/07/26 07:57:20;;;;;;;1.70;1.60;;;;;;;22.67;74.60;99922.25;5003873;28;20181;-75
2021/07/26 07:59:47;;;;;;;1.30;1.20;;;;;;;22.77;79.04;99929.78;5008059;28;20263;-75
2021/07/26 08:02:12;;;;;;;2.10;1.90;;;;;;;22.84;77.85;99936.09;5004653;28;20194;-74
2021/07/26 08:04:40;;;;;;;2.33;1.87;;;;;;;22.84;77.30;99929.75;5004262;28;20192;-73
2021/07/26 08:07:05;;;;;;;2.03;1.80;;;;;;;22.87;75.59;99934.53;5005384;28;21084;-74
2021/07/26 08:09:31;;;;;;;2.00;1.70;;;;;;;23.03;77.73;99931.25;5002633;28;20176;-72
2021/07/26 08:11:56;;;;;;;1.73;1.63;;;;;;;23.08;72.72;99931.59;4994768;28;20234;-72
2021/07/26 08:14:21;;;;;;;1.67;1.57;;;;;;;23.09;71.78;99935.16;4994821;28;20415;-73
2021/07/26 08:16:46;;;;;;;1.50;1.40;;;;;;;23.12;73.90;99931.56;4994800;28;20193;-72
2021/07/26 08:19:12;;;;;;;1.60;1.50;;;;;;;23.23;73.87;99928.69;4994650;28;20660;-72
2021/07/26 08:21:38;;;;;;;1.73;1.63;;;;;;;23.27;74.32;99921.88;4994439;28;20234;-73
2021/07/26 08:24:04;;;;;;;1.50;1.40;;;;;;;23.23;70.95;99928.69;4994602;28;20265;-73
2021/07/26 08:26:29;;;;;;;1.47;1.37;;;;;;;23.31;71.92;99933.03;4994602;28;20264;-72
2021/07/26 08:28:55;;;;;;;1.47;1.37;;;;;;;23.36;71.42;99930.59;4994499;28;20857;-73
2021/07/26 08:31:20;;;;;;;2.07;1.57;;;;;;;23.48;73.07;99937.66;4994255;28;20187;-73
2021/07/26 08:33:45;;;;;;;2.40;1.80;;;;;;;23.57;73.23;99934.38;4997423;28;20180;-73
2021/07/26 08:36:11;;;;;;;1.77;1.67;;;;;;;23.64;69.13;99937.94;5013925;28;20180;-73
2021/07/26 08:38:36;;;;;;;1.40;1.30;;;;;;;23.72;67.22;99935.88;5014085;28;20188;-73
2021/07/26 08:41:01;;;;;;;1.60;1.50;;;;;;;23.76;67.50;99924.69;5013803;28;20208;-73
2021/07/26 08:43:28;;;;;;;1.50;1.40;;;;;;;23.83;71.52;99930.97;5013788;28;20239;-73
2021/07/26 08:45:53;;;;;;;1.60;1.50;;;;;;;24.02;74.77;99927.59;5013869;28;20303;-73
2021/07/26 08:48:23;;;;;;;1.97;1.77;;;;;;;24.03;73.59;99933.97;5013834;28;20271;-73
2021/07/26 08:50:50;;;;;;;2.90;2.00;;;;;;;24.09;74.78;99940.69;5013703;28;20234;-73
2021/07/26 08:53:20;;;;;;;2.43;2.23;;;;;;;23.90;73.17;99935.72;5013624;28;20180;-73
2021/07/26 08:55:48;;;;;;;2.17;2.00;;;;;;;23.81;74.48;99935.38;5013625;28;20553;-72
2021/07/26 08:58:15;;;;;;;2.40;2.20;;;;;;;23.91;76.78;99942.88;5012500;28;20802;-73
2021/07/26 09:00:41;;;;;;;1.60;1.50;;;;;;;24.16;75.89;99943.41;5013350;28;20208;-72
2021/07/26 09:03:07;;;;;;;1.77;1.67;;;;;;;24.32;74.42;99942.84;5013144;28;20181;-72
2021/07/26 09:05:33;;;;;;;1.80;1.70;;;;;;;24.41;72.16;99936.75;5013375;28;20686;-72
2021/07/26 09:08:01;;;;;;;1.87;1.67;;;;;;;24.58;72.23;99941.31;5013309;28;20542;-72
2021/07/26 09:10:27;;;;;;;1.80;1.70;;;;;;;24.48;69.30;99939.47;5013227;28;20196;-73
2021/07/26 09:12:54;;;;;;;2.00;1.90;;;;;;;24.61;68.90;99940.50;5012070;28;20173;-72
2021/07/26 09:15:25;;;;;;;1.57;1.47;;;;;;;24.48;69.18;99937.47;5012723;28;20250;-73
2021/07/26 09:17:52;;;;;;;1.40;1.30;;;;;;;24.62;71.13;99942.06;5012535;28;20183;-72
2021/07/26 09:20:22;;;;;;;1.47;1.37;;;;;;;24.61;70.09;99946.09;5012470;28;20206;-72
2021/07/26 09:22:49;;;;;;;1.70;1.47;;;;;;;24.45;71.20;99945.88;5012929;28;20172;-72
2021/07/26 09:25:20;;;;;;;1.93;1.83;;;;;;;24.32;69.79;99951.22;5012886;28;20164;-72
2021/07/26 09:28:08;;;;;;;2.30;2.10;;;;;;;24.24;68.43;99950.47;5013007;28;20177;-72
2021/07/26 09:30:48;;;;;;;1.70;1.53;;;;;;;24.26;67.57;99952.84;5012767;28;20187;-72
2021/07/26 09:33:34;;;;;;;2.00;1.87;;;;;;;24.46;70.71;99951.06;5013056;28;20615;-73
2021/07/26 09:36:13;;;;;;;1.90;1.80;;;;;;;24.28;70.74;99953.22;5012551;28;20651;-73
2021/07/26 09:38:41;;;;;;;1.73;1.63;;;;;;;24.12;69.02;99950.22;5012630;28;20179;-72
2021/07/26 09:41:08;;;;;;;1.90;1.80;;;;;;;23.99;69.69;99945.16;5012971;28;20243;-72
2021/07/26 09:43:33;;;;;;;1.90;1.80;;;;;;;24.07;67.91;99945.09;5012473;28;20176;-72
2021/07/26 09:45:59;;;;;;;2.30;2.10;;;;;;;24.12;69.10;99941.84;5012601;28;20507;-72
2021/07/26 09:48:27;;;;;;;1.60;1.50;;;;;;;24.35;69.96;99944.00;5012640;28;20226;-72
2021/07/26 09:50:57;;;;;;;2.10;1.77;;;;;;;24.62;66.92;99942.06;5000987;28;20200;-72
2021/07/26 09:53:24;;;;;;;1.60;1.40;;;;;;;24.74;66.09;99944.31;4992643;28;20697;-73
2021/07/26 09:55:53;;;;;;;1.83;1.73;;;;;;;24.82;65.23;99940.19;4992709;28;20585;-72
2021/07/26 09:58:21;;;;;;;1.60;1.50;;;;;;;25.10;64.44;99938.22;4992904;28;20181;-72
2021/07/26 10:00:47;;;;;;;1.60;1.50;;;;;;;25.37;61.60;99935.41;4992555;28;20209;-72
2021/07/26 10:03:15;;;;;;;1.60;1.50;;;;;;;25.48;60.83;99938.81;5005299;28;20180;-73
2021/07/26 10:05:42;;;;;;;1.63;1.53;;;;;;;25.57;58.69;99935.47;5011998;28;20210;-72
2021/07/26 10:08:08;;;;;;;1.37;1.10;;;;;;;25.69;60.88;99941.28;5012397;28;20222;-72
2021/07/26 10:10:35;;;;;;;1.70;1.50;;;;;;;25.51;59.36;99933.16;5011468;28;20200;-72
2021/07/26 10:13:03;;;;;;;1.23;1.03;;;;;;;25.30;60.36;99933.50;5026980;28;20181;-72
2021/07/26 10:15:30;;;;;;;1.57;1.40;;;;;;;25.14;63.70;99938.94;5011930;28;20216;-72
2021/07/26 10:17:55;;;;;;;1.70;1.37;;;;;;;25.05;62.40;99931.13;5012039;28;20178;-72
2021/07/26 10:20:26;;;;;;;1.60;1.50;;;;;;;24.88;63.93;99941.31;5012077;28;20334;-72
2021/07/26 10:22:56;;;;;;;1.73;1.63;;;;;;;24.97;64.58;99937.19;5012075;28;20525;-72
2021/07/26 10:25:32;;;;;;;1.80;1.60;;;;;;;25.27;63.26;99934.34;5011859;28;20177;-72
2021/07/26 10:28:01;;;;;;;1.63;1.53;;;;;;;25.39;60.51;99939.34;5011884;28;20533;-72
2021/07/26 10:30:31;;;;;;;1.43;1.30;;;;;;;25.44;56.40;99927.66;5011018;28;20659;-76
2021/07/26 10:32:59;;;;;;;2.20;1.50;;;;;;;25.54;61.02;99928.72;5010638;28;20180;-72
2021/07/26 10:35:36;;;;;;;1.50;1.40;;;;;;;25.54;62.63;99930.72;5011839;28;20532;-72
2021/07/26 10:38:02;;;;;;;1.70;1.60;;;;;;;25.38;60.19;99929.38;5002976;28;20176;-72
2021/07/26 10:40:29;;;;;;;2.00;1.90;;;;;;;25.44;61.45;99929.69;5003066;28;20683;-72
2021/07/26 10:43:00;;;;;;;1.67;1.57;;;;;;;25.36;61.38;99933.81;5000326;28;20177;-72
2021/07/26 10:45:35;;;;;;;1.50;1.40;;;;;;;25.07;61.14;99930.69;5004493;28;20219;-72
2021/07/26 10:48:28;;;;;;;1.53;1.43;;;;;;;24.92;63.89;99925.28;5011583;28;20198;-71
2021/07/26 10:50:55;;;;;;;1.40;1.30;;;;;;;24.86;66.33;99926.94;5011508;28;20272;-72
2021/07/26 10:53:36;;;;;;;1.60;1.50;;;;;;;24.84;69.39;99926.59;5011306;28;20246;-72
2021/07/26 10:56:05;;;;;;;1.43;1.37;;;;;;;24.85;71.03;99928.16;5006589;28;20526;-72
2021/07/26 10:58:39;;;;;;;2.00;1.87;;;;;;;24.92;69.41;99933.66;5005187;28;20176;-72
2021/07/26 11:01:20;;;;;;;2.03;1.70;;;;;;;25.07;68.96;99925.09;5026376;28;20230;-72
2021/07/26 11:03:45;;;;;;;1.30;1.20;;;;;;;25.30;66.34;99916.72;5011288;28;20176;-72
2021/07/26 11:06:31;;;;;;;1.90;1.80;;;;;;;25.49;67.24;99926.41;5011090;28;20648;-72
2021/07/26 11:09:17;;;;;;;1.50;1.30;;;;;;;25.72;60.96;99932.00;5010992;28;20194;-72
2021/07/26 11:11:42;;;;;;;2.17;1.60;;;;;;;25.82;63.22;99921.84;5010923;28;20201;-72
2021/07/26 11:14:09;;;;;;;2.40;1.90;;;;;;;25.80;59.72;99924.28;5011155;28;20699;-72
2021/07/26 11:16:50;;;;;;;2.00;1.70;;;;;;;25.95;60.93;99922.81;5010932;28;20187;-71
2021/07/26 11:19:34;;;;;;;1.00;0.90;;;;;;;25.91;56.88;99924.91;5010973;28;20172;-72
2021/07/26 11:22:01;;;;;;;1.50;1.40;;;;;;;26.00;61.39;99915.91;5010324;28;20195;-72
2021/07/26 11:24:38;;;;;;;1.47;1.37;;;;;;;26.25;59.62;99909.81;5007841;28;20192;-72
2021/07/26 11:27:04;;;;;;;1.33;1.23;;;;;;;26.28;56.06;99900.56;5001698;28;20187;-71
2021/07/26 11:29:31;;;;;;;1.27;1.17;;;;;;;26.41;59.38;99901.50;4991450;28;20177;-71
2021/07/26 11:31:57;;;;;;;1.40;1.30;;;;;;;26.57;55.82;99904.34;5009779;28;20184;-72
2021/07/26 11:34:28;;;;;;;1.40;1.30;;;;;;;26.74;55.30;99899.56;5010908;28;20658;-72